createdAt,value
2022-12-11T00:02:09.062Z,-0.41
2022-12-11T00:04:35.523Z,-0.50
2022-12-11T00:07:01.905Z,-0.44
2022-12-11T00:09:29.567Z,-0.43
2022-12-11T00:11:55.959Z,-0.51
2022-12-11T00:14:22.327Z,-0.48
2022-12-11T00:16:48.811Z,-0.45
2022-12-11T00:19:15.416Z,-0.37
2022-12-11T00:21:41.721Z,-0.37
2022-12-11T00:24:08.128Z,-0.34
2022-12-11T00:26:34.461Z,-0.37
2022-12-11T00:29:00.852Z,-0.41
2022-12-11T00:31:27.265Z,-0.43
2022-12-11T00:33:53.625Z,-0.38
2022-12-11T00:36:24.225Z,-0.35
2022-12-11T00:38:51.116Z,-0.35
2022-12-11T00:41:17.924Z,-0.25
2022-12-11T00:43:44.379Z,-0.27
2022-12-11T00:46:11.693Z,-0.29
2022-12-11T00:48:38.448Z,-0.22
2022-12-11T00:51:05.090Z,-0.28
2022-12-11T00:53:31.511Z,-0.26
2022-12-11T00:55:57.846Z,-0.15
2022-12-11T00:58:24.551Z,-0.22
2022-12-11T01:00:50.933Z,-0.22
2022-12-11T01:03:17.460Z,-0.22
2022-12-11T01:05:51.452Z,-0.12
2022-12-11T01:08:17.811Z,-0.24
2022-12-11T01:10:44.242Z,-0.14
2022-12-11T01:13:11.193Z,-0.19
2022-12-11T01:15:43.779Z,-0.26
2022-12-11T01:18:14.661Z,-0.23
2022-12-11T01:20:42.130Z,-0.14
2022-12-11T01:23:08.470Z,-0.24
2022-12-11T01:25:36.318Z,-0.21
2022-12-11T01:28:02.797Z,-0.19
2022-12-11T01:30:29.089Z,-0.16
2022-12-11T01:32:55.555Z,-0.15
2022-12-11T01:35:22.094Z,-0.16
2022-12-11T01:37:48.738Z,-0.19
2022-12-11T01:40:17.670Z,-0.19
2022-12-11T01:42:44.415Z,-0.11
2022-12-11T01:45:31.973Z,-0.08
2022-12-11T01:48:03.722Z,-0.10
2022-12-11T01:50:33.399Z,-0.10
2022-12-11T01:52:59.920Z,-0.10
2022-12-11T01:55:26.585Z,0.00
2022-12-11T01:57:53.864Z,-0.05
2022-12-11T02:00:21.506Z,-0.07
2022-12-11T02:02:47.939Z,-0.04
2022-12-11T02:05:14.290Z,0.04
2022-12-11T02:07:46.267Z,-0.02
2022-12-11T02:10:13.171Z,-0.03
2022-12-11T02:12:53.866Z,-0.05
2022-12-11T02:15:23.209Z,0.02
2022-12-11T02:18:14.303Z,0.05
2022-12-11T02:20:48.214Z,-0.01
2022-12-11T02:23:17.554Z,0.08
2022-12-11T02:26:12.138Z,0.13
2022-12-11T02:29:00.628Z,0.14
2022-12-11T02:31:38.683Z,0.11
2022-12-11T02:34:28.673Z,0.11
2022-12-11T02:36:59.062Z,0.02
2022-12-11T02:39:27.751Z,0.08
2022-12-11T02:41:55.925Z,0.06
2022-12-11T02:44:30.251Z,0.07
2022-12-11T02:46:58.191Z,-0.01
2022-12-11T02:49:26.038Z,0.04
2022-12-11T02:51:54.364Z,0.04
2022-12-11T02:54:27.373Z,0.08
2022-12-11T02:57:01.642Z,0.12
2022-12-11T02:59:35.836Z,0.03
2022-12-11T03:02:03.673Z,0.13
2022-12-11T03:04:30.302Z,0.03
2022-12-11T03:06:59.729Z,0.13
2022-12-11T03:09:27.867Z,0.07
2022-12-11T03:11:54.415Z,0.08
2022-12-11T03:14:20.966Z,0.21
2022-12-11T03:17:07.575Z,0.22
2022-12-11T03:19:47.552Z,0.23
2022-12-11T03:22:25.099Z,0.19
2022-12-11T03:25:00.622Z,0.22
2022-12-11T03:27:55.544Z,0.23
2022-12-11T03:30:23.665Z,0.26
2022-12-11T03:32:54.620Z,0.32
2022-12-11T03:35:26.349Z,0.25
2022-12-11T03:37:54.293Z,0.28
2022-12-11T03:40:23.202Z,0.28
2022-12-11T03:42:52.527Z,0.32
2022-12-11T03:45:20.993Z,0.24
2022-12-11T03:47:48.101Z,0.26
2022-12-11T03:50:17.277Z,0.30
2022-12-11T03:52:47.336Z,0.34
2022-12-11T03:55:16.414Z,0.18
2022-12-11T03:57:43.291Z,0.19
2022-12-11T04:00:13.487Z,0.26
2022-12-11T04:02:41.048Z,0.26
2022-12-11T04:05:08.561Z,0.24
2022-12-11T04:07:35.477Z,0.29
2022-12-11T04:10:02.287Z,0.32
2022-12-11T04:12:28.620Z,0.27
2022-12-11T04:14:54.951Z,0.29
2022-12-11T04:17:21.331Z,0.25
2022-12-11T04:19:47.639Z,0.30
2022-12-11T04:22:15.677Z,0.34
2022-12-11T04:24:42.000Z,0.26
2022-12-11T04:27:08.345Z,0.28
2022-12-11T04:29:34.806Z,0.32
2022-12-11T04:32:01.117Z,0.32
2022-12-11T04:34:27.441Z,0.28
2022-12-11T04:36:53.735Z,0.30
2022-12-11T04:39:20.114Z,0.38
2022-12-11T04:41:46.447Z,0.29
2022-12-11T04:44:12.744Z,0.36
2022-12-11T04:46:39.166Z,0.37
2022-12-11T04:49:05.488Z,0.35
2022-12-11T04:51:31.845Z,0.29
2022-12-11T04:53:58.864Z,0.33
2022-12-11T04:56:25.177Z,0.24
2022-12-11T04:58:51.519Z,0.32
2022-12-11T05:01:21.301Z,0.34
2022-12-11T05:03:48.132Z,0.33
2022-12-11T05:06:14.714Z,0.33
2022-12-11T05:08:42.941Z,0.30
2022-12-11T05:11:11.614Z,0.35
2022-12-11T05:13:38.659Z,0.41
2022-12-11T05:16:05.900Z,0.31
2022-12-11T05:18:32.384Z,0.41
2022-12-11T05:21:00.043Z,0.42
2022-12-11T05:23:27.397Z,0.38
2022-12-11T05:25:59.311Z,0.30
2022-12-11T05:28:29.251Z,0.38
2022-12-11T05:31:01.226Z,0.37
2022-12-11T05:33:28.550Z,0.41
2022-12-11T05:35:55.550Z,0.35
2022-12-11T05:38:22.414Z,0.26
2022-12-11T05:41:05.806Z,0.32
2022-12-11T05:43:34.173Z,0.30
2022-12-11T05:46:13.973Z,0.31
2022-12-11T05:48:40.932Z,0.34
2022-12-11T05:51:08.408Z,0.36
2022-12-11T05:53:36.443Z,0.32
2022-12-11T05:56:08.946Z,0.36
2022-12-11T05:58:35.263Z,0.33
2022-12-11T06:01:02.416Z,0.32
2022-12-11T06:03:28.855Z,0.30
2022-12-11T06:05:55.165Z,0.33
2022-12-11T06:08:21.572Z,0.21
2022-12-11T06:10:48.697Z,0.29
2022-12-11T06:13:15.895Z,0.24
2022-12-11T06:15:42.569Z,0.24
2022-12-11T06:18:08.984Z,0.27
2022-12-11T06:20:35.619Z,0.29
2022-12-11T06:23:02.398Z,0.24
2022-12-11T06:25:29.750Z,0.26
2022-12-11T06:27:56.323Z,0.26
2022-12-11T06:30:23.233Z,0.19
2022-12-11T06:33:04.939Z,0.24
2022-12-11T06:35:31.247Z,0.33
2022-12-11T06:37:57.790Z,0.33
2022-12-11T06:40:24.159Z,0.35
2022-12-11T06:42:50.457Z,0.30
2022-12-11T06:45:16.871Z,0.25
2022-12-11T06:47:43.132Z,0.30
2022-12-11T06:50:09.849Z,0.19
2022-12-11T06:52:36.210Z,0.18
2022-12-11T06:55:02.629Z,0.26
2022-12-11T06:57:28.922Z,0.28
2022-12-11T06:59:55.284Z,0.25
2022-12-11T07:02:21.684Z,0.26
2022-12-11T07:04:53.382Z,0.37
2022-12-11T07:07:21.383Z,0.29
2022-12-11T07:09:47.690Z,0.41
2022-12-11T07:12:14.193Z,0.39
2022-12-11T07:14:40.627Z,0.38
2022-12-11T07:17:06.986Z,0.44
2022-12-11T07:19:33.493Z,0.40
2022-12-11T07:21:59.826Z,0.41
2022-12-11T07:24:26.312Z,0.46
2022-12-11T07:26:52.811Z,0.42
2022-12-11T07:29:19.335Z,0.50
2022-12-11T07:31:45.920Z,0.47
2022-12-11T07:34:13.710Z,0.55
2022-12-11T07:36:40.136Z,0.46
2022-12-11T07:39:06.500Z,0.58
2022-12-11T07:41:33.105Z,0.49
2022-12-11T07:44:00.782Z,0.44
2022-12-11T07:46:29.606Z,0.58
2022-12-11T07:48:56.168Z,0.62
2022-12-11T07:51:25.073Z,0.56
2022-12-11T07:53:52.350Z,0.58
2022-12-11T07:56:19.337Z,0.58
2022-12-11T07:58:46.786Z,0.65
2022-12-11T08:01:19.198Z,0.62
2022-12-11T08:03:45.926Z,0.68
2022-12-11T08:06:12.778Z,0.65
2022-12-11T08:08:40.098Z,0.64
2022-12-11T08:11:09.628Z,0.66
2022-12-11T08:13:36.326Z,0.68
2022-12-11T08:16:07.657Z,0.69
2022-12-11T08:18:35.086Z,0.68
2022-12-11T08:21:28.038Z,0.77
2022-12-11T08:23:55.024Z,0.65
2022-12-11T08:26:24.346Z,0.64
2022-12-11T08:28:51.424Z,0.71
2022-12-11T08:31:18.890Z,0.74
2022-12-11T08:33:45.768Z,0.79
2022-12-11T08:36:14.537Z,0.75
2022-12-11T08:38:41.582Z,0.74
2022-12-11T08:41:22.634Z,0.72
2022-12-11T08:43:49.714Z,0.74
2022-12-11T08:46:16.121Z,0.70
2022-12-11T08:48:43.231Z,0.68
2022-12-11T08:51:13.500Z,0.48
2022-12-11T08:53:39.916Z,0.48
2022-12-11T08:56:13.522Z,0.59
2022-12-11T08:58:40.047Z,0.61
2022-12-11T09:01:12.288Z,0.51
2022-12-11T09:03:40.019Z,0.58
2022-12-11T09:06:12.173Z,0.59
2022-12-11T09:08:39.182Z,0.61
2022-12-11T09:11:07.612Z,0.59
2022-12-11T09:13:34.025Z,0.69
2022-12-11T09:16:00.352Z,0.67
2022-12-11T09:18:26.866Z,0.61
2022-12-11T09:21:02.658Z,0.68
2022-12-11T09:23:29.210Z,0.52
2022-12-11T09:25:55.681Z,0.53
2022-12-11T09:28:22.479Z,0.49
2022-12-11T09:30:48.920Z,0.61
2022-12-11T09:33:15.431Z,0.55
2022-12-11T09:35:41.663Z,0.71
2022-12-11T09:38:08.094Z,0.70
2022-12-11T09:40:34.367Z,0.67
2022-12-11T09:43:09.149Z,0.69
2022-12-11T09:45:35.505Z,0.58
2022-12-11T09:48:02.360Z,0.62
2022-12-11T09:50:32.823Z,0.54
2022-12-11T09:53:32.422Z,0.56
2022-12-11T09:56:11.276Z,0.50
2022-12-11T09:59:05.415Z,0.53
2022-12-11T10:01:43.887Z,0.51
2022-12-11T10:04:10.161Z,0.46
2022-12-11T10:06:43.481Z,0.38
2022-12-11T10:09:22.458Z,0.39
2022-12-11T10:11:58.313Z,0.33
2022-12-11T10:14:46.519Z,0.44
2022-12-11T10:17:21.416Z,0.46
2022-12-11T10:19:48.632Z,0.42
2022-12-11T10:22:24.550Z,0.36
2022-12-11T10:25:13.472Z,0.32
2022-12-11T10:27:40.883Z,0.43
2022-12-11T10:30:15.212Z,0.37
2022-12-11T10:33:12.000Z,0.44
2022-12-11T10:36:10.499Z,0.43
2022-12-11T10:38:45.365Z,0.44
2022-12-11T10:41:16.455Z,0.35
2022-12-11T10:43:45.996Z,0.45
2022-12-11T10:46:25.457Z,0.48
2022-12-11T10:48:56.854Z,0.52
2022-12-11T10:51:43.895Z,0.65
2022-12-11T10:54:39.522Z,0.70
2022-12-11T10:57:08.850Z,0.69
2022-12-11T10:59:44.242Z,0.70
2022-12-11T11:02:25.517Z,0.71
2022-12-11T11:04:53.406Z,0.74
2022-12-11T11:07:25.503Z,0.73
2022-12-11T11:10:05.231Z,0.74
2022-12-11T11:12:47.461Z,0.75
2022-12-11T11:15:19.231Z,0.79
2022-12-11T11:17:54.544Z,0.80
2022-12-11T11:20:27.173Z,0.82
2022-12-11T11:22:56.934Z,0.79
2022-12-11T11:25:26.430Z,0.73
2022-12-11T11:27:56.405Z,0.71
2022-12-11T11:30:24.803Z,0.78
2022-12-11T11:32:54.637Z,0.72
2022-12-11T11:35:24.366Z,0.75
2022-12-11T11:38:02.614Z,0.82
2022-12-11T11:40:37.859Z,0.84
2022-12-11T11:43:18.890Z,0.81
2022-12-11T11:45:56.520Z,0.82
2022-12-11T11:48:33.613Z,0.81
2022-12-11T11:51:07.850Z,0.84
2022-12-11T11:53:38.592Z,0.80
2022-12-11T11:56:29.194Z,0.92
2022-12-11T11:59:03.456Z,0.89
2022-12-11T12:01:30.360Z,0.86
2022-12-11T12:03:57.495Z,0.86
2022-12-11T12:06:47.464Z,0.93
2022-12-11T12:09:33.971Z,0.97
2022-12-11T12:12:24.733Z,1.04
2022-12-11T12:15:15.505Z,0.99
2022-12-11T12:17:56.314Z,1.02
2022-12-11T12:20:34.424Z,1.08
2022-12-11T12:23:11.388Z,1.12
2022-12-11T12:25:43.920Z,1.11
2022-12-11T12:28:48.266Z,1.15
2022-12-11T12:31:39.628Z,1.17
2022-12-11T12:34:15.015Z,1.17
2022-12-11T12:37:27.354Z,1.18
2022-12-11T12:40:14.038Z,1.16
2022-12-11T12:42:59.437Z,1.21
2022-12-11T12:45:46.455Z,1.15
2022-12-11T12:48:12.867Z,1.13
2022-12-11T12:50:43.612Z,1.24
2022-12-11T12:53:17.646Z,1.18
2022-12-11T12:55:45.658Z,1.16
2022-12-11T12:58:31.152Z,1.18
2022-12-11T13:01:15.151Z,1.14
2022-12-11T13:03:50.864Z,1.16
2022-12-11T13:06:39.137Z,1.09
2022-12-11T13:09:25.012Z,1.12
2022-12-11T13:11:54.301Z,1.04
2022-12-11T13:14:20.540Z,1.09
2022-12-11T13:16:49.458Z,0.96
2022-12-11T13:19:24.632Z,1.06
2022-12-11T13:22:06.312Z,1.06
2022-12-11T13:24:34.182Z,1.04
2022-12-11T13:27:25.783Z,0.96
2022-12-11T13:29:52.675Z,0.96
2022-12-11T13:32:19.001Z,1.00
2022-12-11T13:34:56.376Z,0.99
2022-12-11T13:37:36.593Z,0.97
2022-12-11T13:40:08.820Z,0.95
2022-12-11T13:42:44.093Z,0.86
2022-12-11T13:45:22.831Z,0.86
2022-12-11T13:47:49.606Z,0.84
2022-12-11T13:50:25.059Z,0.90
2022-12-11T13:52:56.105Z,0.96
2022-12-11T13:55:30.932Z,0.97
2022-12-11T13:57:57.925Z,0.95
2022-12-11T14:00:27.045Z,0.79
2022-12-11T14:02:58.236Z,0.84
2022-12-11T14:05:24.985Z,0.90
2022-12-11T14:07:57.958Z,0.79
2022-12-11T14:10:26.812Z,0.82
2022-12-11T14:12:59.496Z,0.89
2022-12-11T14:15:28.067Z,0.81
2022-12-11T14:17:55.734Z,0.82
2022-12-11T14:20:28.257Z,0.89
2022-12-11T14:23:06.054Z,0.92
2022-12-11T14:25:32.402Z,0.84
2022-12-11T14:27:58.733Z,0.80
2022-12-11T14:30:28.016Z,0.73
2022-12-11T14:32:58.290Z,0.81
2022-12-11T14:35:38.393Z,0.74
2022-12-11T14:38:17.983Z,0.74
2022-12-11T14:40:48.824Z,0.67
2022-12-11T14:43:23.015Z,0.72
2022-12-11T14:45:53.905Z,0.79
2022-12-11T14:48:26.199Z,0.79
2022-12-11T14:50:55.046Z,0.69
2022-12-11T14:53:28.619Z,0.71
2022-12-11T14:55:57.735Z,0.74
2022-12-11T14:58:26.322Z,0.77
2022-12-11T15:01:03.384Z,0.77
2022-12-11T15:03:35.688Z,0.76
2022-12-11T15:06:21.173Z,0.71
2022-12-11T15:08:47.488Z,0.75
2022-12-11T15:11:16.632Z,0.64
2022-12-11T15:13:54.520Z,0.74
2022-12-11T15:16:22.989Z,0.65
2022-12-11T15:18:51.326Z,0.66
2022-12-11T15:21:19.214Z,0.60
2022-12-11T15:23:45.483Z,0.72
2022-12-11T15:26:12.021Z,0.59
2022-12-11T15:28:39.359Z,0.60
2022-12-11T15:31:27.577Z,0.64
2022-12-11T15:33:54.481Z,0.54
2022-12-11T15:36:33.338Z,0.53
2022-12-11T15:38:59.693Z,0.50
2022-12-11T15:41:26.282Z,0.61
2022-12-11T15:43:59.249Z,0.52
2022-12-11T15:46:26.220Z,0.62
2022-12-11T15:48:52.708Z,0.54
2022-12-11T15:51:19.104Z,0.55
2022-12-11T15:53:45.535Z,0.46
2022-12-11T15:56:15.496Z,0.63
2022-12-11T15:58:44.162Z,0.62
2022-12-11T16:01:11.039Z,0.59
2022-12-11T16:03:37.387Z,0.45
2022-12-11T16:06:03.997Z,0.48
2022-12-11T16:08:30.416Z,0.52
2022-12-11T16:10:56.802Z,0.54
2022-12-11T16:13:23.198Z,0.44
2022-12-11T16:15:51.121Z,0.42
2022-12-11T16:18:20.935Z,0.35
2022-12-11T16:20:47.652Z,0.47
2022-12-11T16:23:14.767Z,0.46
2022-12-11T16:25:42.722Z,0.45
2022-12-11T16:28:11.843Z,0.38
2022-12-11T16:30:38.854Z,0.48
2022-12-11T16:33:12.003Z,0.45
2022-12-11T16:35:39.197Z,0.35
2022-12-11T16:38:05.635Z,0.41
2022-12-11T16:40:32.277Z,0.48
2022-12-11T16:42:58.630Z,0.42
2022-12-11T16:45:26.863Z,0.42
2022-12-11T16:47:53.466Z,0.38
2022-12-11T16:50:20.388Z,0.43
2022-12-11T16:52:46.775Z,0.43
2022-12-11T16:55:13.916Z,0.53
2022-12-11T16:57:40.550Z,0.53
2022-12-11T17:00:09.776Z,0.48
2022-12-11T17:02:36.643Z,0.45
2022-12-11T17:05:03.609Z,0.46
2022-12-11T17:07:31.783Z,0.42
2022-12-11T17:09:58.229Z,0.46
2022-12-11T17:12:24.589Z,0.55
2022-12-11T17:14:50.969Z,0.54
2022-12-11T17:17:17.314Z,0.51
2022-12-11T17:19:43.699Z,0.44
2022-12-11T17:22:10.046Z,0.51
2022-12-11T17:24:36.463Z,0.45
2022-12-11T17:27:02.749Z,0.56
2022-12-11T17:29:29.157Z,0.50
2022-12-11T17:31:55.606Z,0.43
2022-12-11T17:34:21.905Z,0.51
2022-12-11T17:36:48.302Z,0.40
2022-12-11T17:39:14.729Z,0.46
2022-12-11T17:41:41.063Z,0.49
2022-12-11T17:44:07.512Z,0.43
2022-12-11T17:46:33.869Z,0.42
2022-12-11T17:49:03.568Z,0.41
2022-12-11T17:51:29.924Z,0.42
2022-12-11T17:53:57.139Z,0.38
2022-12-11T17:56:24.631Z,0.41
2022-12-11T17:58:51.395Z,0.40
2022-12-11T18:01:18.180Z,0.44
2022-12-11T18:03:44.677Z,0.51
2022-12-11T18:06:12.325Z,0.51
2022-12-11T18:08:39.467Z,0.51
2022-12-11T18:11:14.944Z,0.48
2022-12-11T18:13:42.561Z,0.42
2022-12-11T18:16:14.371Z,0.38
2022-12-11T18:18:40.802Z,0.38
2022-12-11T18:21:07.443Z,0.37
2022-12-11T18:23:34.269Z,0.33
2022-12-11T18:26:01.530Z,0.28
2022-12-11T18:28:27.886Z,0.25
2022-12-11T18:30:54.318Z,0.28
2022-12-11T18:33:20.640Z,0.38
2022-12-11T18:35:49.734Z,0.23
2022-12-11T18:38:16.102Z,0.31
2022-12-11T18:40:42.707Z,0.28
2022-12-11T18:43:09.073Z,0.22
2022-12-11T18:45:35.494Z,0.16
2022-12-11T18:48:01.852Z,0.23
2022-12-11T18:50:28.206Z,0.20
2022-12-11T18:52:55.194Z,0.13
2022-12-11T18:55:21.603Z,0.11
2022-12-11T18:57:48.038Z,0.22
2022-12-11T19:00:16.989Z,0.22
2022-12-11T19:02:43.344Z,0.15
2022-12-11T19:05:11.328Z,0.17
2022-12-11T19:07:38.057Z,0.16
2022-12-11T19:10:05.064Z,0.16
2022-12-11T19:12:31.466Z,0.23
2022-12-11T19:14:57.846Z,0.22
2022-12-11T19:17:24.198Z,0.16
2022-12-11T19:19:50.566Z,0.14
2022-12-11T19:22:16.919Z,0.18
2022-12-11T19:24:43.253Z,0.27
2022-12-11T19:27:13.524Z,0.15
2022-12-11T19:29:40.329Z,0.19
2022-12-11T19:32:06.571Z,0.25
2022-12-11T19:34:32.929Z,0.15
2022-12-11T19:36:59.295Z,0.18
2022-12-11T19:39:25.822Z,0.11
2022-12-11T19:41:52.097Z,0.24
2022-12-11T19:44:18.458Z,0.16
2022-12-11T19:46:45.009Z,0.25
2022-12-11T19:49:12.290Z,0.26
2022-12-11T19:51:40.038Z,0.25
2022-12-11T19:54:07.990Z,0.18
2022-12-11T19:56:34.845Z,0.19
2022-12-11T19:59:07.022Z,0.19
2022-12-11T20:01:36.421Z,0.18
2022-12-11T20:04:09.029Z,0.21
2022-12-11T20:06:37.164Z,0.19
2022-12-11T20:09:05.355Z,0.12
2022-12-11T20:11:33.103Z,0.21
2022-12-11T20:13:59.867Z,0.04
2022-12-11T20:16:46.175Z,0.11
2022-12-11T20:19:12.893Z,0.10
2022-12-11T20:21:39.133Z,0.12
2022-12-11T20:24:05.778Z,-0.06
2022-12-11T20:26:32.165Z,0.02
2022-12-11T20:28:58.465Z,0.08
2022-12-11T20:31:25.873Z,0.05
2022-12-11T20:33:53.254Z,0.16
2022-12-11T20:36:21.329Z,0.13
2022-12-11T20:38:47.925Z,0.01
2022-12-11T20:41:18.121Z,0.04
2022-12-11T20:43:46.995Z,0.03
2022-12-11T20:46:15.068Z,0.07
2022-12-11T20:48:43.093Z,0.13
2022-12-11T20:51:11.467Z,0.10
2022-12-11T20:53:38.519Z,0.11
2022-12-11T20:56:13.989Z,0.16
2022-12-11T20:58:41.147Z,0.11
2022-12-11T21:01:07.689Z,0.06
2022-12-11T21:03:38.892Z,0.17
2022-12-11T21:06:20.210Z,0.16
2022-12-11T21:08:49.580Z,0.23
2022-12-11T21:11:16.297Z,0.14
2022-12-11T21:13:45.659Z,0.24
2022-12-11T21:16:12.319Z,0.25
2022-12-11T21:18:39.423Z,0.23
2022-12-11T21:21:06.153Z,0.26
2022-12-11T21:23:32.805Z,0.16
2022-12-11T21:25:59.591Z,0.15
2022-12-11T21:28:29.332Z,0.21
2022-12-11T21:31:04.188Z,0.27
2022-12-11T21:33:31.019Z,0.28
2022-12-11T21:35:58.921Z,0.28
2022-12-11T21:38:25.611Z,0.17
2022-12-11T21:40:52.435Z,0.27
2022-12-11T21:43:19.188Z,0.19
2022-12-11T21:46:05.019Z,0.21
2022-12-11T21:48:31.652Z,0.26
2022-12-11T21:51:06.105Z,0.24
2022-12-11T21:53:32.608Z,0.24
2022-12-11T21:55:58.981Z,0.29
2022-12-11T21:58:25.359Z,0.31
2022-12-11T22:00:51.712Z,0.25
2022-12-11T22:03:18.057Z,0.28
2022-12-11T22:05:44.453Z,0.23
2022-12-11T22:08:10.880Z,0.29
2022-12-11T22:10:37.238Z,0.26
2022-12-11T22:13:03.760Z,0.25
2022-12-11T22:15:30.162Z,0.22
2022-12-11T22:17:56.541Z,0.17
2022-12-11T22:20:23.113Z,0.26
2022-12-11T22:22:49.453Z,0.23
2022-12-11T22:25:25.795Z,0.24
2022-12-11T22:27:52.143Z,0.19
2022-12-11T22:30:18.657Z,0.19
2022-12-11T22:32:44.989Z,0.30
2022-12-11T22:35:11.530Z,0.22
2022-12-11T22:37:38.165Z,0.24
2022-12-11T22:40:05.357Z,0.26
2022-12-11T22:42:31.733Z,0.25
2022-12-11T22:44:58.041Z,0.28
2022-12-11T22:47:24.378Z,0.21
2022-12-11T22:49:50.760Z,0.21
2022-12-11T22:52:17.192Z,0.25
2022-12-11T22:54:43.430Z,0.29
2022-12-11T22:57:09.765Z,0.18
2022-12-11T22:59:36.663Z,0.19
2022-12-11T23:02:03.325Z,0.25
2022-12-11T23:04:29.793Z,0.28
2022-12-11T23:06:56.185Z,0.18
2022-12-11T23:09:22.745Z,0.25
2022-12-11T23:11:49.149Z,0.22
2022-12-11T23:14:17.654Z,0.22
2022-12-11T23:16:44.761Z,0.25
2022-12-11T23:19:12.183Z,0.18
2022-12-11T23:21:38.996Z,0.11
2022-12-11T23:24:05.898Z,0.12
2022-12-11T23:26:32.550Z,0.14
2022-12-11T23:28:59.782Z,0.24
2022-12-11T23:31:27.392Z,0.15
2022-12-11T23:33:54.114Z,0.21
2022-12-11T23:36:20.947Z,0.22
2022-12-11T23:38:54.104Z,0.21
2022-12-11T23:41:21.456Z,0.16
2022-12-11T23:43:47.852Z,0.07
2022-12-11T23:46:15.752Z,0.17
2022-12-11T23:48:42.665Z,0.14
2022-12-11T23:51:12.756Z,0.14
2022-12-11T23:53:39.190Z,0.06
2022-12-11T23:56:06.718Z,0.14
2022-12-11T23:58:36.878Z,0.11
